sensor_id;sensor_type;location;lat;lon;timestamp;temperature;humidity
6377;DHT22;3221;48.858;10.128;2023-04-15T00:01:47;5.20;99.90
6377;DHT22;3221;48.858;10.128;2023-04-15T00:04:14;5.20;99.90
6377;DHT22;3221;48.858;10.128;2023-04-15T00:06:41;5.30;99.90
6377;DHT22;3221;48.858;10.128;2023-04-15T00:09:08;5.20;99.90
6377;DHT22;3221;48.858;10.128;2023-04-15T00:11:35;5.20;99.90
6377;DHT22;3221;48.858;10.128;2023-04-15T00:14:02;5.20;99.90
6377;DHT22;3221;48.858;10.128;2023-04-15T00:16:30;5.20;99.90
6377;DHT22;3221;48.858;10.128;2023-04-15T00:18:57;5.20;99.90
6377;DHT22;3221;48.858;10.128;2023-04-15T00:21:25;5.10;99.90
6377;DHT22;3221;48.858;10.128;2023-04-15T00:23:53;5.30;99.90
6377;DHT22;3221;48.858;10.128;2023-04-15T00:26:20;5.20;99.90
6377;DHT22;3221;48.858;10.128;2023-04-15T00:28:48;5.20;99.90
6377;DHT22;3221;48.858;10.128;2023-04-15T00:31:15;5.20;99.90
6377;DHT22;3221;48.858;10.128;2023-04-15T00:33:42;5.10;99.90
6377;DHT22;3221;48.858;10.128;2023-04-15T00:36:10;5.30;99.90
6377;DHT22;3221;48.858;10.128;2023-04-15T00:38:37;5.10;99.90
6377;DHT22;3221;48.858;10.128;2023-04-15T00:41:04;5.10;99.90
6377;DHT22;3221;48.858;10.128;2023-04-15T00:43:31;5.20;99.90
6377;DHT22;3221;48.858;10.128;2023-04-15T00:46:00;5.10;99.90
6377;DHT22;3221;48.858;10.128;2023-04-15T00:48:28;5.10;99.90
6377;DHT22;3221;48.858;10.128;2023-04-15T00:50:55;5.00;99.90
6377;DHT22;3221;48.858;10.128;2023-04-15T00:53:22;5.10;99.90
6377;DHT22;3221;48.858;10.128;2023-04-15T00:55:50;5.10;99.90
6377;DHT22;3221;48.858;10.128;2023-04-15T00:58:17;5.00;99.90
6377;DHT22;3221;48.858;10.128;2023-04-15T01:00:44;5.00;99.90
6377;DHT22;3221;48.858;10.128;2023-04-15T01:03:12;5.00;99.90
6377;DHT22;3221;48.858;10.128;2023-04-15T01:05:40;5.00;99.90
6377;DHT22;3221;48.858;10.128;2023-04-15T01:08:07;5.00;99.90
6377;DHT22;3221;48.858;10.128;2023-04-15T01:10:34;5.00;99.90
6377;DHT22;3221;48.858;10.128;2023-04-15T01:13:02;5.00;99.90
6377;DHT22;3221;48.858;10.128;2023-04-15T01:15:29;4.90;99.90
6377;DHT22;3221;48.858;10.128;2023-04-15T01:17:58;4.90;99.90
6377;DHT22;3221;48.858;10.128;2023-04-15T01:20:25;4.90;99.90
6377;DHT22;3221;48.858;10.128;2023-04-15T01:22:54;4.90;99.90
6377;DHT22;3221;48.858;10.128;2023-04-15T01:25:32;4.90;99.90
6377;DHT22;3221;48.858;10.128;2023-04-15T01:27:59;4.80;99.90
6377;DHT22;3221;48.858;10.128;2023-04-15T01:30:26;4.80;99.90
6377;DHT22;3221;48.858;10.128;2023-04-15T01:32:53;4.80;99.90
6377;DHT22;3221;48.858;10.128;2023-04-15T01:35:20;4.80;99.90
6377;DHT22;3221;48.858;10.128;2023-04-15T01:37:50;4.80;99.90
6377;DHT22;3221;48.858;10.128;2023-04-15T01:40:18;4.80;99.90
6377;DHT22;3221;48.858;10.128;2023-04-15T01:42:45;4.70;99.90
6377;DHT22;3221;48.858;10.128;2023-04-15T01:45:14;4.70;99.90
6377;DHT22;3221;48.858;10.128;2023-04-15T01:47:41;4.70;99.90
6377;DHT22;3221;48.858;10.128;2023-04-15T01:50:09;4.60;99.90
6377;DHT22;3221;48.858;10.128;2023-04-15T01:52:36;4.60;99.90
6377;DHT22;3221;48.858;10.128;2023-04-15T01:55:03;4.60;99.90
6377;DHT22;3221;48.858;10.128;2023-04-15T01:57:30;4.60;99.90
6377;DHT22;3221;48.858;10.128;2023-04-15T01:59:57;4.50;99.90
6377;DHT22;3221;48.858;10.128;2023-04-15T02:02:24;4.60;99.90
6377;DHT22;3221;48.858;10.128;2023-04-15T02:04:55;4.70;99.90
6377;DHT22;3221;48.858;10.128;2023-04-15T02:07:22;4.80;99.90
6377;DHT22;3221;48.858;10.128;2023-04-15T02:09:49;4.60;99.90
6377;DHT22;3221;48.858;10.128;2023-04-15T02:12:16;4.60;99.90
6377;DHT22;3221;48.858;10.128;2023-04-15T02:14:43;4.60;99.90
6377;DHT22;3221;48.858;10.128;2023-04-15T02:17:10;4.60;99.90
6377;DHT22;3221;48.858;10.128;2023-04-15T02:19:37;4.70;99.90
6377;DHT22;3221;48.858;10.128;2023-04-15T02:22:06;4.60;99.90
6377;DHT22;3221;48.858;10.128;2023-04-15T02:24:34;4.60;99.90
6377;DHT22;3221;48.858;10.128;2023-04-15T02:27:02;4.60;99.90
6377;DHT22;3221;48.858;10.128;2023-04-15T02:29:31;4.60;99.90
6377;DHT22;3221;48.858;10.128;2023-04-15T02:31:59;4.60;99.90
6377;DHT22;3221;48.858;10.128;2023-04-15T02:34:26;4.70;99.90
6377;DHT22;3221;48.858;10.128;2023-04-15T02:36:56;4.70;99.90
6377;DHT22;3221;48.858;10.128;2023-04-15T02:39:23;4.70;99.90
6377;DHT22;3221;48.858;10.128;2023-04-15T02:41:50;4.80;99.90
6377;DHT22;3221;48.858;10.128;2023-04-15T02:44:18;4.70;99.90
6377;DHT22;3221;48.858;10.128;2023-04-15T02:46:51;4.70;99.90
6377;DHT22;3221;48.858;10.128;2023-04-15T02:49:20;4.60;99.90
6377;DHT22;3221;48.858;10.128;2023-04-15T02:51:47;4.80;99.90
6377;DHT22;3221;48.858;10.128;2023-04-15T02:54:19;4.60;99.90
6377;DHT22;3221;48.858;10.128;2023-04-15T02:56:46;4.70;99.90
6377;DHT22;3221;48.858;10.128;2023-04-15T02:59:13;4.60;99.90
6377;DHT22;3221;48.858;10.128;2023-04-15T03:01:40;4.60;99.90
6377;DHT22;3221;48.858;10.128;2023-04-15T03:04:07;4.60;99.90
6377;DHT22;3221;48.858;10.128;2023-04-15T03:06:35;4.60;99.90
6377;DHT22;3221;48.858;10.128;2023-04-15T03:09:02;4.70;99.90
6377;DHT22;3221;48.858;10.128;2023-04-15T03:11:33;4.60;99.90
6377;DHT22;3221;48.858;10.128;2023-04-15T03:14:04;4.50;99.90
6377;DHT22;3221;48.858;10.128;2023-04-15T03:16:34;4.60;99.90
6377;DHT22;3221;48.858;10.128;2023-04-15T03:19:01;4.60;99.90
6377;DHT22;3221;48.858;10.128;2023-04-15T03:21:28;4.60;99.90
6377;DHT22;3221;48.858;10.128;2023-04-15T03:23:56;4.60;99.90
6377;DHT22;3221;48.858;10.128;2023-04-15T03:26:32;4.60;99.90
6377;DHT22;3221;48.858;10.128;2023-04-15T03:29:09;4.60;99.90
6377;DHT22;3221;48.858;10.128;2023-04-15T03:31:36;4.70;99.90
6377;DHT22;3221;48.858;10.128;2023-04-15T03:34:03;4.60;99.90
6377;DHT22;3221;48.858;10.128;2023-04-15T03:36:30;4.60;99.90
6377;DHT22;3221;48.858;10.128;2023-04-15T03:39:00;4.60;99.90
6377;DHT22;3221;48.858;10.128;2023-04-15T03:41:30;4.60;99.90
6377;DHT22;3221;48.858;10.128;2023-04-15T03:43:58;4.60;99.90
6377;DHT22;3221;48.858;10.128;2023-04-15T03:46:25;4.60;99.90
6377;DHT22;3221;48.858;10.128;2023-04-15T03:48:52;4.60;99.90
6377;DHT22;3221;48.858;10.128;2023-04-15T03:51:19;4.60;99.90
6377;DHT22;3221;48.858;10.128;2023-04-15T03:53:46;4.50;99.90
6377;DHT22;3221;48.858;10.128;2023-04-15T03:56:13;4.60;99.90
6377;DHT22;3221;48.858;10.128;2023-04-15T03:58:40;4.50;99.90
6377;DHT22;3221;48.858;10.128;2023-04-15T04:01:07;4.60;99.90
6377;DHT22;3221;48.858;10.128;2023-04-15T04:03:34;4.60;99.90
6377;DHT22;3221;48.858;10.128;2023-04-15T04:06:01;4.50;99.90
6377;DHT22;3221;48.858;10.128;2023-04-15T04:08:28;4.60;99.90
6377;DHT22;3221;48.858;10.128;2023-04-15T04:10:55;4.50;99.90
6377;DHT22;3221;48.858;10.128;2023-04-15T04:13:21;4.50;99.90
6377;DHT22;3221;48.858;10.128;2023-04-15T04:15:48;4.60;99.90
6377;DHT22;3221;48.858;10.128;2023-04-15T04:18:15;4.50;99.90
6377;DHT22;3221;48.858;10.128;2023-04-15T04:20:42;4.50;99.90
6377;DHT22;3221;48.858;10.128;2023-04-15T04:23:09;4.60;99.90
6377;DHT22;3221;48.858;10.128;2023-04-15T04:25:37;4.50;99.90
6377;DHT22;3221;48.858;10.128;2023-04-15T04:28:04;4.50;99.90
6377;DHT22;3221;48.858;10.128;2023-04-15T04:30:31;4.50;99.90
6377;DHT22;3221;48.858;10.128;2023-04-15T04:32:58;4.50;99.90
6377;DHT22;3221;48.858;10.128;2023-04-15T04:35:25;4.50;99.90
6377;DHT22;3221;48.858;10.128;2023-04-15T04:37:53;4.50;99.90
6377;DHT22;3221;48.858;10.128;2023-04-15T04:40:19;4.50;99.90
6377;DHT22;3221;48.858;10.128;2023-04-15T04:42:46;4.40;99.90
6377;DHT22;3221;48.858;10.128;2023-04-15T04:45:13;4.40;99.90
6377;DHT22;3221;48.858;10.128;2023-04-15T04:47:40;4.40;99.90
6377;DHT22;3221;48.858;10.128;2023-04-15T04:50:08;4.60;99.90
6377;DHT22;3221;48.858;10.128;2023-04-15T04:52:35;4.50;99.90
6377;DHT22;3221;48.858;10.128;2023-04-15T04:55:02;4.60;99.90
6377;DHT22;3221;48.858;10.128;2023-04-15T04:57:29;4.50;99.90
6377;DHT22;3221;48.858;10.128;2023-04-15T04:59:56;4.40;99.90
6377;DHT22;3221;48.858;10.128;2023-04-15T05:02:23;4.50;99.90
6377;DHT22;3221;48.858;10.128;2023-04-15T05:04:52;4.50;99.90
6377;DHT22;3221;48.858;10.128;2023-04-15T05:07:22;4.60;99.90
6377;DHT22;3221;48.858;10.128;2023-04-15T05:09:49;4.50;99.90
6377;DHT22;3221;48.858;10.128;2023-04-15T05:12:16;4.50;99.90
6377;DHT22;3221;48.858;10.128;2023-04-15T05:14:43;4.60;99.90
6377;DHT22;3221;48.858;10.128;2023-04-15T05:17:12;4.60;99.90
6377;DHT22;3221;48.858;10.128;2023-04-15T05:19:39;4.60;99.90
6377;DHT22;3221;48.858;10.128;2023-04-15T05:22:06;4.60;99.90
6377;DHT22;3221;48.858;10.128;2023-04-15T05:24:34;4.60;99.90
6377;DHT22;3221;48.858;10.128;2023-04-15T05:27:01;4.60;99.90
6377;DHT22;3221;48.858;10.128;2023-04-15T05:29:28;4.70;99.90
6377;DHT22;3221;48.858;10.128;2023-04-15T05:31:55;4.60;99.90
6377;DHT22;3221;48.858;10.128;2023-04-15T05:34:22;4.60;99.90
6377;DHT22;3221;48.858;10.128;2023-04-15T05:36:49;4.70;99.90
6377;DHT22;3221;48.858;10.128;2023-04-15T05:39:16;4.60;99.90
6377;DHT22;3221;48.858;10.128;2023-04-15T05:41:43;4.60;99.90
6377;DHT22;3221;48.858;10.128;2023-04-15T05:44:10;4.60;99.90
6377;DHT22;3221;48.858;10.128;2023-04-15T05:46:37;4.60;99.90
6377;DHT22;3221;48.858;10.128;2023-04-15T05:49:04;4.70;99.90
6377;DHT22;3221;48.858;10.128;2023-04-15T05:51:31;4.80;99.90
6377;DHT22;3221;48.858;10.128;2023-04-15T05:53:58;4.80;99.90
6377;DHT22;3221;48.858;10.128;2023-04-15T05:56:25;4.70;99.90
6377;DHT22;3221;48.858;10.128;2023-04-15T05:58:52;4.80;99.90
6377;DHT22;3221;48.858;10.128;2023-04-15T06:01:19;4.90;99.90
6377;DHT22;3221;48.858;10.128;2023-04-15T06:03:46;4.80;99.90
6377;DHT22;3221;48.858;10.128;2023-04-15T06:06:14;4.80;99.90
6377;DHT22;3221;48.858;10.128;2023-04-15T06:08:41;5.00;99.90
6377;DHT22;3221;48.858;10.128;2023-04-15T06:11:08;5.10;99.90
6377;DHT22;3221;48.858;10.128;2023-04-15T06:13:35;5.00;99.90
6377;DHT22;3221;48.858;10.128;2023-04-15T06:16:02;5.00;99.90
6377;DHT22;3221;48.858;10.128;2023-04-15T06:18:30;5.00;99.90
6377;DHT22;3221;48.858;10.128;2023-04-15T06:20:57;4.90;99.90
6377;DHT22;3221;48.858;10.128;2023-04-15T06:23:24;5.10;99.90
6377;DHT22;3221;48.858;10.128;2023-04-15T06:25:53;5.00;99.90
6377;DHT22;3221;48.858;10.128;2023-04-15T06:28:20;5.00;99.90
6377;DHT22;3221;48.858;10.128;2023-04-15T06:30:47;5.20;99.90
6377;DHT22;3221;48.858;10.128;2023-04-15T06:33:14;5.20;99.90
6377;DHT22;3221;48.858;10.128;2023-04-15T06:35:41;5.40;99.90
6377;DHT22;3221;48.858;10.128;2023-04-15T06:38:08;5.30;99.90
6377;DHT22;3221;48.858;10.128;2023-04-15T06:40:35;5.30;99.90
6377;DHT22;3221;48.858;10.128;2023-04-15T06:43:02;5.30;99.90
6377;DHT22;3221;48.858;10.128;2023-04-15T06:45:30;5.40;99.90
6377;DHT22;3221;48.858;10.128;2023-04-15T06:47:58;5.20;99.90
6377;DHT22;3221;48.858;10.128;2023-04-15T06:50:25;5.30;99.90
6377;DHT22;3221;48.858;10.128;2023-04-15T06:52:54;5.20;99.90
6377;DHT22;3221;48.858;10.128;2023-04-15T06:55:21;5.50;99.90
6377;DHT22;3221;48.858;10.128;2023-04-15T06:57:48;5.30;99.90
6377;DHT22;3221;48.858;10.128;2023-04-15T07:00:15;5.20;99.90
6377;DHT22;3221;48.858;10.128;2023-04-15T07:02:43;5.20;99.90
6377;DHT22;3221;48.858;10.128;2023-04-15T07:05:10;5.30;99.90
6377;DHT22;3221;48.858;10.128;2023-04-15T07:07:38;5.40;99.90
6377;DHT22;3221;48.858;10.128;2023-04-15T07:10:05;5.30;99.90
6377;DHT22;3221;48.858;10.128;2023-04-15T07:12:32;5.20;99.90
6377;DHT22;3221;48.858;10.128;2023-04-15T07:15:00;5.20;99.90
6377;DHT22;3221;48.858;10.128;2023-04-15T07:17:27;5.20;99.90
6377;DHT22;3221;48.858;10.128;2023-04-15T07:19:55;5.40;99.90
6377;DHT22;3221;48.858;10.128;2023-04-15T07:22:22;5.40;99.90
6377;DHT22;3221;48.858;10.128;2023-04-15T07:24:48;5.30;99.90
6377;DHT22;3221;48.858;10.128;2023-04-15T07:27:15;5.40;99.90
6377;DHT22;3221;48.858;10.128;2023-04-15T07:29:43;5.40;99.90
6377;DHT22;3221;48.858;10.128;2023-04-15T07:32:10;5.40;99.90
6377;DHT22;3221;48.858;10.128;2023-04-15T07:34:37;5.30;99.90
6377;DHT22;3221;48.858;10.128;2023-04-15T07:37:04;5.50;99.90
6377;DHT22;3221;48.858;10.128;2023-04-15T07:39:31;5.50;99.90
6377;DHT22;3221;48.858;10.128;2023-04-15T07:41:58;5.50;99.90
6377;DHT22;3221;48.858;10.128;2023-04-15T07:44:26;5.50;99.90
6377;DHT22;3221;48.858;10.128;2023-04-15T07:46:53;5.50;99.90
6377;DHT22;3221;48.858;10.128;2023-04-15T07:49:20;5.60;99.90
6377;DHT22;3221;48.858;10.128;2023-04-15T07:51:47;5.40;99.90
6377;DHT22;3221;48.858;10.128;2023-04-15T07:54:14;5.50;99.90
6377;DHT22;3221;48.858;10.128;2023-04-15T07:56:41;5.70;99.90
6377;DHT22;3221;48.858;10.128;2023-04-15T07:59:08;5.70;99.90
6377;DHT22;3221;48.858;10.128;2023-04-15T08:01:36;5.70;99.90
6377;DHT22;3221;48.858;10.128;2023-04-15T08:04:03;5.60;99.90
6377;DHT22;3221;48.858;10.128;2023-04-15T08:06:30;5.70;99.90
6377;DHT22;3221;48.858;10.128;2023-04-15T08:08:58;5.60;99.90
6377;DHT22;3221;48.858;10.128;2023-04-15T08:11:26;5.60;99.90
6377;DHT22;3221;48.858;10.128;2023-04-15T08:13:53;5.80;99.90
6377;DHT22;3221;48.858;10.128;2023-04-15T08:16:22;5.70;99.90
6377;DHT22;3221;48.858;10.128;2023-04-15T08:18:52;5.60;99.90
6377;DHT22;3221;48.858;10.128;2023-04-15T08:21:19;5.50;99.90
6377;DHT22;3221;48.858;10.128;2023-04-15T08:23:49;5.70;99.90
6377;DHT22;3221;48.858;10.128;2023-04-15T08:26:17;5.70;99.90
6377;DHT22;3221;48.858;10.128;2023-04-15T08:28:45;5.60;99.90
6377;DHT22;3221;48.858;10.128;2023-04-15T08:31:14;5.80;99.90
6377;DHT22;3221;48.858;10.128;2023-04-15T08:33:41;5.80;99.90
6377;DHT22;3221;48.858;10.128;2023-04-15T08:36:08;5.80;99.90
6377;DHT22;3221;48.858;10.128;2023-04-15T08:38:35;5.80;99.90
6377;DHT22;3221;48.858;10.128;2023-04-15T08:41:11;5.80;99.90
6377;DHT22;3221;48.858;10.128;2023-04-15T08:43:58;5.90;99.90
6377;DHT22;3221;48.858;10.128;2023-04-15T08:46:27;5.80;99.90
6377;DHT22;3221;48.858;10.128;2023-04-15T08:48:56;6.00;99.90
6377;DHT22;3221;48.858;10.128;2023-04-15T08:51:24;6.00;99.90
6377;DHT22;3221;48.858;10.128;2023-04-15T08:53:51;5.90;99.90
6377;DHT22;3221;48.858;10.128;2023-04-15T08:56:21;5.80;99.90
6377;DHT22;3221;48.858;10.128;2023-04-15T08:58:50;5.90;99.90
6377;DHT22;3221;48.858;10.128;2023-04-15T09:01:17;5.90;99.90
6377;DHT22;3221;48.858;10.128;2023-04-15T09:03:45;6.00;99.90
6377;DHT22;3221;48.858;10.128;2023-04-15T09:06:16;6.00;99.90
6377;DHT22;3221;48.858;10.128;2023-04-15T09:08:43;6.00;99.90
6377;DHT22;3221;48.858;10.128;2023-04-15T09:11:10;6.10;99.90
6377;DHT22;3221;48.858;10.128;2023-04-15T09:13:38;6.00;99.90
6377;DHT22;3221;48.858;10.128;2023-04-15T09:16:05;6.20;99.90
6377;DHT22;3221;48.858;10.128;2023-04-15T09:18:33;6.20;99.90
6377;DHT22;3221;48.858;10.128;2023-04-15T09:21:19;6.20;99.90
6377;DHT22;3221;48.858;10.128;2023-04-15T09:23:59;6.20;99.90
6377;DHT22;3221;48.858;10.128;2023-04-15T09:26:36;6.20;99.90
6377;DHT22;3221;48.858;10.128;2023-04-15T09:29:07;6.20;99.90
6377;DHT22;3221;48.858;10.128;2023-04-15T09:31:36;6.20;99.90
6377;DHT22;3221;48.858;10.128;2023-04-15T09:34:04;6.30;99.90
6377;DHT22;3221;48.858;10.128;2023-04-15T09:36:52;6.20;99.90
6377;DHT22;3221;48.858;10.128;2023-04-15T09:39:20;6.40;99.90
6377;DHT22;3221;48.858;10.128;2023-04-15T09:42:06;6.30;99.90
6377;DHT22;3221;48.858;10.128;2023-04-15T09:44:33;6.40;99.90
6377;DHT22;3221;48.858;10.128;2023-04-15T09:47:00;6.40;99.90
6377;DHT22;3221;48.858;10.128;2023-04-15T09:49:28;6.40;99.90
6377;DHT22;3221;48.858;10.128;2023-04-15T09:52:01;6.30;99.90
6377;DHT22;3221;48.858;10.128;2023-04-15T09:54:37;6.50;99.90
6377;DHT22;3221;48.858;10.128;2023-04-15T09:57:05;6.60;99.90
6377;DHT22;3221;48.858;10.128;2023-04-15T09:59:33;6.60;99.90
6377;DHT22;3221;48.858;10.128;2023-04-15T10:02:03;6.70;99.90
6377;DHT22;3221;48.858;10.128;2023-04-15T10:04:34;6.70;99.90
6377;DHT22;3221;48.858;10.128;2023-04-15T10:07:03;7.00;99.90
6377;DHT22;3221;48.858;10.128;2023-04-15T10:09:31;7.00;99.90
6377;DHT22;3221;48.858;10.128;2023-04-15T10:11:59;7.10;99.90
6377;DHT22;3221;48.858;10.128;2023-04-15T10:14:27;7.00;99.90
6377;DHT22;3221;48.858;10.128;2023-04-15T10:17:00;6.90;99.90
6377;DHT22;3221;48.858;10.128;2023-04-15T10:19:30;7.00;99.90
6377;DHT22;3221;48.858;10.128;2023-04-15T10:21:59;7.00;99.90
6377;DHT22;3221;48.858;10.128;2023-04-15T10:24:26;7.10;99.90
6377;DHT22;3221;48.858;10.128;2023-04-15T10:26:54;7.10;99.90
6377;DHT22;3221;48.858;10.128;2023-04-15T10:29:22;7.10;99.90
6377;DHT22;3221;48.858;10.128;2023-04-15T10:31:52;7.20;99.90
6377;DHT22;3221;48.858;10.128;2023-04-15T10:34:20;7.20;99.90
6377;DHT22;3221;48.858;10.128;2023-04-15T10:36:48;7.20;99.90
6377;DHT22;3221;48.858;10.128;2023-04-15T10:39:38;7.20;99.90
6377;DHT22;3221;48.858;10.128;2023-04-15T10:42:13;7.20;99.90
6377;DHT22;3221;48.858;10.128;2023-04-15T10:44:48;7.20;99.90
6377;DHT22;3221;48.858;10.128;2023-04-15T10:47:18;7.20;99.90
6377;DHT22;3221;48.858;10.128;2023-04-15T10:49:51;7.20;99.90
6377;DHT22;3221;48.858;10.128;2023-04-15T10:52:23;7.30;99.90
6377;DHT22;3221;48.858;10.128;2023-04-15T10:57:40;7.40;99.90
6377;DHT22;3221;48.858;10.128;2023-04-15T11:02:46;7.50;99.90
6377;DHT22;3221;48.858;10.128;2023-04-15T11:05:17;7.40;99.90
6377;DHT22;3221;48.858;10.128;2023-04-15T11:07:52;7.30;99.90
6377;DHT22;3221;48.858;10.128;2023-04-15T11:12:53;7.50;99.90
6377;DHT22;3221;48.858;10.128;2023-04-15T11:18:24;7.50;99.90
6377;DHT22;3221;48.858;10.128;2023-04-15T11:20:55;7.60;99.90
6377;DHT22;3221;48.858;10.128;2023-04-15T11:23:29;7.60;99.90
6377;DHT22;3221;48.858;10.128;2023-04-15T11:25:57;7.60;99.90
6377;DHT22;3221;48.858;10.128;2023-04-15T11:28:26;7.60;99.90
6377;DHT22;3221;48.858;10.128;2023-04-15T11:30:54;7.60;99.90
6377;DHT22;3221;48.858;10.128;2023-04-15T11:33:21;7.60;99.90
6377;DHT22;3221;48.858;10.128;2023-04-15T11:35:53;7.70;99.90
6377;DHT22;3221;48.858;10.128;2023-04-15T11:38:20;7.70;99.90
6377;DHT22;3221;48.858;10.128;2023-04-15T11:40:49;7.80;99.90
6377;DHT22;3221;48.858;10.128;2023-04-15T11:45:53;7.90;99.90
6377;DHT22;3221;48.858;10.128;2023-04-15T11:48:24;8.10;99.90
6377;DHT22;3221;48.858;10.128;2023-04-15T11:50:59;8.00;99.90
6377;DHT22;3221;48.858;10.128;2023-04-15T11:53:41;8.00;99.90
6377;DHT22;3221;48.858;10.128;2023-04-15T11:56:17;8.10;99.90
6377;DHT22;3221;48.858;10.128;2023-04-15T11:58:45;8.10;99.90
6377;DHT22;3221;48.858;10.128;2023-04-15T12:01:12;8.30;99.90
6377;DHT22;3221;48.858;10.128;2023-04-15T12:03:41;8.20;99.90
6377;DHT22;3221;48.858;10.128;2023-04-15T12:06:22;8.20;99.90
6377;DHT22;3221;48.858;10.128;2023-04-15T12:14:09;8.10;99.90
6377;DHT22;3221;48.858;10.128;2023-04-15T12:16:47;8.20;99.90
6377;DHT22;3221;48.858;10.128;2023-04-15T12:19:36;8.20;99.90
6377;DHT22;3221;48.858;10.128;2023-04-15T12:22:04;8.20;99.90
6377;DHT22;3221;48.858;10.128;2023-04-15T12:24:34;8.30;99.90
6377;DHT22;3221;48.858;10.128;2023-04-15T12:27:06;8.10;99.90
6377;DHT22;3221;48.858;10.128;2023-04-15T12:29:35;8.10;99.90
6377;DHT22;3221;48.858;10.128;2023-04-15T12:32:15;8.10;99.90
6377;DHT22;3221;48.858;10.128;2023-04-15T12:34:50;8.10;99.90
6377;DHT22;3221;48.858;10.128;2023-04-15T12:37:17;8.10;99.90
6377;DHT22;3221;48.858;10.128;2023-04-15T12:39:47;8.10;99.90
6377;DHT22;3221;48.858;10.128;2023-04-15T12:42:17;7.90;99.90
6377;DHT22;3221;48.858;10.128;2023-04-15T12:44:44;8.00;99.90
6377;DHT22;3221;48.858;10.128;2023-04-15T12:47:12;8.10;99.90
6377;DHT22;3221;48.858;10.128;2023-04-15T12:49:39;7.90;99.90
6377;DHT22;3221;48.858;10.128;2023-04-15T12:52:07;8.00;99.90
6377;DHT22;3221;48.858;10.128;2023-04-15T12:54:34;8.00;99.90
6377;DHT22;3221;48.858;10.128;2023-04-15T12:57:02;7.90;99.90
6377;DHT22;3221;48.858;10.128;2023-04-15T12:59:33;7.90;99.90
6377;DHT22;3221;48.858;10.128;2023-04-15T13:02:00;7.90;99.90
6377;DHT22;3221;48.858;10.128;2023-04-15T13:04:28;7.80;99.90
6377;DHT22;3221;48.858;10.128;2023-04-15T13:06:58;7.90;99.90
6377;DHT22;3221;48.858;10.128;2023-04-15T13:09:25;7.80;99.90
6377;DHT22;3221;48.858;10.128;2023-04-15T13:11:52;7.90;99.90
6377;DHT22;3221;48.858;10.128;2023-04-15T13:14:20;7.90;99.90
6377;DHT22;3221;48.858;10.128;2023-04-15T13:16:47;7.80;99.90
6377;DHT22;3221;48.858;10.128;2023-04-15T13:19:14;7.80;99.90
6377;DHT22;3221;48.858;10.128;2023-04-15T13:21:41;7.80;99.90
6377;DHT22;3221;48.858;10.128;2023-04-15T13:24:08;7.80;99.90
6377;DHT22;3221;48.858;10.128;2023-04-15T13:26:35;7.90;99.90
6377;DHT22;3221;48.858;10.128;2023-04-15T13:29:03;7.80;99.90
6377;DHT22;3221;48.858;10.128;2023-04-15T13:31:30;7.70;99.90
6377;DHT22;3221;48.858;10.128;2023-04-15T13:33:58;7.80;99.90
6377;DHT22;3221;48.858;10.128;2023-04-15T13:36:25;7.70;99.90
6377;DHT22;3221;48.858;10.128;2023-04-15T13:38:53;7.70;99.90
6377;DHT22;3221;48.858;10.128;2023-04-15T13:41:20;7.90;99.90
6377;DHT22;3221;48.858;10.128;2023-04-15T13:43:47;7.70;99.90
6377;DHT22;3221;48.858;10.128;2023-04-15T13:46:14;7.70;99.90
6377;DHT22;3221;48.858;10.128;2023-04-15T13:48:41;7.70;99.90
6377;DHT22;3221;48.858;10.128;2023-04-15T13:51:08;7.70;99.90
6377;DHT22;3221;48.858;10.128;2023-04-15T13:53:36;7.60;99.90
6377;DHT22;3221;48.858;10.128;2023-04-15T13:56:08;7.70;99.90
6377;DHT22;3221;48.858;10.128;2023-04-15T13:58:36;7.70;99.90
6377;DHT22;3221;48.858;10.128;2023-04-15T14:01:04;7.70;99.90
6377;DHT22;3221;48.858;10.128;2023-04-15T14:03:36;7.90;99.90
6377;DHT22;3221;48.858;10.128;2023-04-15T14:06:04;7.70;99.90
6377;DHT22;3221;48.858;10.128;2023-04-15T14:08:32;7.70;99.90
6377;DHT22;3221;48.858;10.128;2023-04-15T14:10:59;7.70;99.90
6377;DHT22;3221;48.858;10.128;2023-04-15T14:13:26;7.70;99.90
6377;DHT22;3221;48.858;10.128;2023-04-15T14:15:53;7.60;99.90
6377;DHT22;3221;48.858;10.128;2023-04-15T14:18:20;7.70;99.90
6377;DHT22;3221;48.858;10.128;2023-04-15T14:20:47;7.80;99.90
6377;DHT22;3221;48.858;10.128;2023-04-15T14:23:14;7.60;99.90
6377;DHT22;3221;48.858;10.128;2023-04-15T14:25:41;7.70;99.90
6377;DHT22;3221;48.858;10.128;2023-04-15T14:28:08;7.70;99.90
6377;DHT22;3221;48.858;10.128;2023-04-15T14:30:35;7.70;99.90
6377;DHT22;3221;48.858;10.128;2023-04-15T14:33:02;7.60;99.90
6377;DHT22;3221;48.858;10.128;2023-04-15T14:35:30;7.60;99.90
6377;DHT22;3221;48.858;10.128;2023-04-15T14:37:57;7.60;99.90
6377;DHT22;3221;48.858;10.128;2023-04-15T14:40:24;7.50;99.90
6377;DHT22;3221;48.858;10.128;2023-04-15T14:42:51;7.50;99.90
6377;DHT22;3221;48.858;10.128;2023-04-15T14:45:18;7.70;99.90
6377;DHT22;3221;48.858;10.128;2023-04-15T14:47:46;7.70;99.90
6377;DHT22;3221;48.858;10.128;2023-04-15T14:50:13;7.60;99.90
6377;DHT22;3221;48.858;10.128;2023-04-15T14:52:40;7.50;99.90
6377;DHT22;3221;48.858;10.128;2023-04-15T14:55:08;7.50;99.90
6377;DHT22;3221;48.858;10.128;2023-04-15T14:57:40;7.50;99.90
6377;DHT22;3221;48.858;10.128;2023-04-15T15:00:09;7.50;99.90
6377;DHT22;3221;48.858;10.128;2023-04-15T15:02:41;7.60;99.90
6377;DHT22;3221;48.858;10.128;2023-04-15T15:05:09;7.50;99.90
6377;DHT22;3221;48.858;10.128;2023-04-15T15:07:38;7.50;99.90
6377;DHT22;3221;48.858;10.128;2023-04-15T15:10:06;7.50;99.90
6377;DHT22;3221;48.858;10.128;2023-04-15T15:12:33;7.50;99.90
6377;DHT22;3221;48.858;10.128;2023-04-15T15:15:02;7.40;99.90
6377;DHT22;3221;48.858;10.128;2023-04-15T15:17:45;7.50;99.90
6377;DHT22;3221;48.858;10.128;2023-04-15T15:20:12;7.40;99.90
6377;DHT22;3221;48.858;10.128;2023-04-15T15:22:39;7.50;99.90
6377;DHT22;3221;48.858;10.128;2023-04-15T15:25:06;7.50;99.90
6377;DHT22;3221;48.858;10.128;2023-04-15T15:27:33;7.30;99.90
6377;DHT22;3221;48.858;10.128;2023-04-15T15:30:03;7.30;99.90
6377;DHT22;3221;48.858;10.128;2023-04-15T15:32:30;7.30;99.90
6377;DHT22;3221;48.858;10.128;2023-04-15T15:34:57;7.30;99.90
6377;DHT22;3221;48.858;10.128;2023-04-15T15:37:23;7.50;99.90
6377;DHT22;3221;48.858;10.128;2023-04-15T15:39:51;7.40;99.90
6377;DHT22;3221;48.858;10.128;2023-04-15T15:42:18;7.40;99.90
6377;DHT22;3221;48.858;10.128;2023-04-15T15:44:45;7.30;99.90
6377;DHT22;3221;48.858;10.128;2023-04-15T15:47:15;7.50;99.90
6377;DHT22;3221;48.858;10.128;2023-04-15T15:49:42;7.30;99.90
6377;DHT22;3221;48.858;10.128;2023-04-15T15:52:09;7.30;99.90
6377;DHT22;3221;48.858;10.128;2023-04-15T15:54:38;7.10;99.90
6377;DHT22;3221;48.858;10.128;2023-04-15T15:57:04;7.20;99.90
6377;DHT22;3221;48.858;10.128;2023-04-15T15:59:31;7.30;99.90
6377;DHT22;3221;48.858;10.128;2023-04-15T16:01:59;7.10;99.90
6377;DHT22;3221;48.858;10.128;2023-04-15T16:04:28;7.40;99.90
6377;DHT22;3221;48.858;10.128;2023-04-15T16:06:55;7.20;99.90
6377;DHT22;3221;48.858;10.128;2023-04-15T16:09:22;7.20;99.90
6377;DHT22;3221;48.858;10.128;2023-04-15T16:11:49;7.10;99.90
6377;DHT22;3221;48.858;10.128;2023-04-15T16:14:16;7.10;99.90
6377;DHT22;3221;48.858;10.128;2023-04-15T16:16:43;7.10;99.90
6377;DHT22;3221;48.858;10.128;2023-04-15T16:19:10;7.20;99.90
6377;DHT22;3221;48.858;10.128;2023-04-15T16:21:37;7.00;99.90
6377;DHT22;3221;48.858;10.128;2023-04-15T16:24:04;7.20;99.90
6377;DHT22;3221;48.858;10.128;2023-04-15T16:26:31;7.10;99.90
6377;DHT22;3221;48.858;10.128;2023-04-15T16:28:58;7.00;99.90